sensor_id;sensor_type;location;lat;lon;timestamp;P1;durP1;ratioP1;P2;durP2;ratioP2
72639;SDS011;60683;51.730;8.762;2024-03-02T00:03:01;9.57;;;4.93;;
72639;SDS011;60683;51.730;8.762;2024-03-02T00:05:48;7.88;;;3.95;;
72639;SDS011;60683;51.730;8.762;2024-03-02T00:08:34;8.88;;;4.28;;
72639;SDS011;60683;51.730;8.762;2024-03-02T00:11:21;9.63;;;4.20;;
72639;SDS011;60683;51.730;8.762;2024-03-02T00:14:07;9.07;;;4.03;;
72639;SDS011;60683;51.730;8.762;2024-03-02T00:16:52;8.73;;;4.03;;
72639;SDS011;60683;51.730;8.762;2024-03-02T00:19:41;8.45;;;3.83;;
72639;SDS011;60683;51.730;8.762;2024-03-02T00:22:26;9.10;;;4.30;;
72639;SDS011;60683;51.730;8.762;2024-03-02T00:25:12;10.10;;;4.50;;
72639;SDS011;60683;51.730;8.762;2024-03-02T00:27:58;8.75;;;3.95;;
72639;SDS011;60683;51.730;8.762;2024-03-02T00:30:49;7.57;;;3.53;;
72639;SDS011;60683;51.730;8.762;2024-03-02T00:33:39;8.07;;;3.03;;
72639;SDS011;60683;51.730;8.762;2024-03-02T00:36:26;7.55;;;3.92;;
72639;SDS011;60683;51.730;8.762;2024-03-02T00:39:12;10.20;;;4.43;;
72639;SDS011;60683;51.730;8.762;2024-03-02T00:42:00;8.43;;;4.07;;
72639;SDS011;60683;51.730;8.762;2024-03-02T00:44:46;6.75;;;2.72;;
72639;SDS011;60683;51.730;8.762;2024-03-02T00:47:32;8.25;;;3.50;;
72639;SDS011;60683;51.730;8.762;2024-03-02T00:50:17;9.98;;;4.80;;
72639;SDS011;60683;51.730;8.762;2024-03-02T00:53:04;8.55;;;4.03;;
72639;SDS011;60683;51.730;8.762;2024-03-02T00:55:49;7.82;;;3.72;;
72639;SDS011;60683;51.730;8.762;2024-03-02T00:58:35;10.18;;;4.40;;
72639;SDS011;60683;51.730;8.762;2024-03-02T01:01:22;7.75;;;3.08;;
72639;SDS011;60683;51.730;8.762;2024-03-02T01:04:07;7.95;;;3.90;;
72639;SDS011;60683;51.730;8.762;2024-03-02T01:06:52;5.68;;;2.70;;
72639;SDS011;60683;51.730;8.762;2024-03-02T01:09:38;8.70;;;3.95;;
72639;SDS011;60683;51.730;8.762;2024-03-02T01:12:24;8.77;;;4.30;;
72639;SDS011;60683;51.730;8.762;2024-03-02T01:15:10;7.45;;;3.92;;
72639;SDS011;60683;51.730;8.762;2024-03-02T01:17:56;7.28;;;3.35;;
72639;SDS011;60683;51.730;8.762;2024-03-02T01:20:42;10.05;;;4.45;;
72639;SDS011;60683;51.730;8.762;2024-03-02T01:23:27;7.65;;;4.15;;
72639;SDS011;60683;51.730;8.762;2024-03-02T01:26:12;8.40;;;4.07;;
72639;SDS011;60683;51.730;8.762;2024-03-02T01:28:58;7.97;;;4.25;;
72639;SDS011;60683;51.730;8.762;2024-03-02T01:31:44;11.38;;;5.10;;
72639;SDS011;60683;51.730;8.762;2024-03-02T01:34:30;8.30;;;4.10;;
72639;SDS011;60683;51.730;8.762;2024-03-02T01:37:15;9.27;;;4.32;;
72639;SDS011;60683;51.730;8.762;2024-03-02T01:40:00;11.32;;;4.50;;
72639;SDS011;60683;51.730;8.762;2024-03-02T01:42:46;9.30;;;4.68;;
72639;SDS011;60683;51.730;8.762;2024-03-02T01:45:32;10.20;;;5.45;;
72639;SDS011;60683;51.730;8.762;2024-03-02T01:48:19;11.20;;;4.85;;
72639;SDS011;60683;51.730;8.762;2024-03-02T01:51:05;8.60;;;5.03;;
72639;SDS011;60683;51.730;8.762;2024-03-02T01:56:36;6.80;;;3.85;;
72639;SDS011;60683;51.730;8.762;2024-03-02T01:59:22;10.18;;;4.65;;
72639;SDS011;60683;51.730;8.762;2024-03-02T02:02:08;8.48;;;4.20;;
72639;SDS011;60683;51.730;8.762;2024-03-02T02:04:54;9.60;;;5.32;;
72639;SDS011;60683;51.730;8.762;2024-03-02T02:07:41;9.48;;;4.55;;
72639;SDS011;60683;51.730;8.762;2024-03-02T02:10:27;8.88;;;4.13;;
72639;SDS011;60683;51.730;8.762;2024-03-02T02:13:12;9.63;;;5.35;;
72639;SDS011;60683;51.730;8.762;2024-03-02T02:16:03;8.40;;;3.47;;
72639;SDS011;60683;51.730;8.762;2024-03-02T02:18:49;14.23;;;5.55;;
72639;SDS011;60683;51.730;8.762;2024-03-02T02:21:36;8.05;;;4.20;;
72639;SDS011;60683;51.730;8.762;2024-03-02T02:24:21;8.18;;;4.53;;
72639;SDS011;60683;51.730;8.762;2024-03-02T02:27:07;5.63;;;2.20;;
72639;SDS011;60683;51.730;8.762;2024-03-02T02:29:52;11.70;;;5.65;;
72639;SDS011;60683;51.730;8.762;2024-03-02T02:32:38;12.23;;;4.95;;
72639;SDS011;60683;51.730;8.762;2024-03-02T02:35:23;10.07;;;5.75;;
72639;SDS011;60683;51.730;8.762;2024-03-02T02:38:10;11.20;;;5.20;;
72639;SDS011;60683;51.730;8.762;2024-03-02T02:40:55;11.07;;;5.22;;
72639;SDS011;60683;51.730;8.762;2024-03-02T02:43:40;13.23;;;5.68;;
72639;SDS011;60683;51.730;8.762;2024-03-02T02:46:25;9.75;;;4.32;;
72639;SDS011;60683;51.730;8.762;2024-03-02T02:49:11;10.73;;;5.70;;
72639;SDS011;60683;51.730;8.762;2024-03-02T02:51:56;9.38;;;5.88;;
72639;SDS011;60683;51.730;8.762;2024-03-02T02:54:43;12.73;;;5.90;;
72639;SDS011;60683;51.730;8.762;2024-03-02T02:57:29;9.35;;;3.78;;
72639;SDS011;60683;51.730;8.762;2024-03-02T03:00:19;6.80;;;3.65;;
72639;SDS011;60683;51.730;8.762;2024-03-02T03:03:06;8.02;;;3.58;;
72639;SDS011;60683;51.730;8.762;2024-03-02T03:05:51;6.10;;;4.10;;
72639;SDS011;60683;51.730;8.762;2024-03-02T03:08:36;9.82;;;4.35;;
72639;SDS011;60683;51.730;8.762;2024-03-02T03:11:23;11.35;;;4.47;;
72639;SDS011;60683;51.730;8.762;2024-03-02T03:14:10;11.02;;;6.32;;
72639;SDS011;60683;51.730;8.762;2024-03-02T03:16:55;10.82;;;4.55;;
72639;SDS011;60683;51.730;8.762;2024-03-02T03:19:40;12.70;;;4.50;;
72639;SDS011;60683;51.730;8.762;2024-03-02T03:22:26;13.00;;;5.97;;
72639;SDS011;60683;51.730;8.762;2024-03-02T03:25:11;13.18;;;5.78;;
72639;SDS011;60683;51.730;8.762;2024-03-02T03:27:58;11.45;;;6.10;;
72639;SDS011;60683;51.730;8.762;2024-03-02T03:30:44;10.25;;;4.25;;
72639;SDS011;60683;51.730;8.762;2024-03-02T03:33:29;9.55;;;4.80;;
72639;SDS011;60683;51.730;8.762;2024-03-02T03:36:14;12.20;;;6.25;;
72639;SDS011;60683;51.730;8.762;2024-03-02T03:39:00;10.20;;;4.32;;
72639;SDS011;60683;51.730;8.762;2024-03-02T03:41:46;13.15;;;6.22;;
72639;SDS011;60683;51.730;8.762;2024-03-02T03:44:34;11.50;;;6.03;;
72639;SDS011;60683;51.730;8.762;2024-03-02T03:47:19;6.68;;;3.10;;
72639;SDS011;60683;51.730;8.762;2024-03-02T03:50:05;7.18;;;4.32;;
72639;SDS011;60683;51.730;8.762;2024-03-02T03:52:51;7.25;;;4.43;;
72639;SDS011;60683;51.730;8.762;2024-03-02T03:55:37;8.32;;;4.60;;
72639;SDS011;60683;51.730;8.762;2024-03-02T03:58:22;12.82;;;5.63;;
72639;SDS011;60683;51.730;8.762;2024-03-02T04:01:08;16.65;;;6.68;;
72639;SDS011;60683;51.730;8.762;2024-03-02T04:03:53;10.20;;;5.15;;
72639;SDS011;60683;51.730;8.762;2024-03-02T04:06:38;9.15;;;3.72;;
72639;SDS011;60683;51.730;8.762;2024-03-02T04:09:24;8.65;;;4.72;;
72639;SDS011;60683;51.730;8.762;2024-03-02T04:12:10;8.70;;;4.55;;
72639;SDS011;60683;51.730;8.762;2024-03-02T04:14:56;11.55;;;5.55;;
72639;SDS011;60683;51.730;8.762;2024-03-02T04:17:43;7.63;;;4.35;;
72639;SDS011;60683;51.730;8.762;2024-03-02T04:20:29;11.95;;;6.13;;
72639;SDS011;60683;51.730;8.762;2024-03-02T04:23:14;10.55;;;5.53;;
72639;SDS011;60683;51.730;8.762;2024-03-02T04:26:00;13.82;;;6.03;;
72639;SDS011;60683;51.730;8.762;2024-03-02T04:28:45;13.38;;;6.45;;
72639;SDS011;60683;51.730;8.762;2024-03-02T04:31:30;8.18;;;5.00;;
72639;SDS011;60683;51.730;8.762;2024-03-02T04:34:17;10.40;;;4.95;;
72639;SDS011;60683;51.730;8.762;2024-03-02T04:37:03;11.63;;;5.55;;
72639;SDS011;60683;51.730;8.762;2024-03-02T04:39:48;14.35;;;6.80;;
72639;SDS011;60683;51.730;8.762;2024-03-02T04:42:33;12.55;;;6.13;;
72639;SDS011;60683;51.730;8.762;2024-03-02T04:45:18;9.93;;;4.88;;
72639;SDS011;60683;51.730;8.762;2024-03-02T04:48:04;12.23;;;5.82;;
72639;SDS011;60683;51.730;8.762;2024-03-02T04:50:51;17.35;;;7.57;;
72639;SDS011;60683;51.730;8.762;2024-03-02T04:53:37;13.10;;;6.47;;
72639;SDS011;60683;51.730;8.762;2024-03-02T04:56:22;7.65;;;3.45;;
72639;SDS011;60683;51.730;8.762;2024-03-02T04:59:28;9.07;;;4.40;;
72639;SDS011;60683;51.730;8.762;2024-03-02T05:02:14;11.40;;;4.85;;
72639;SDS011;60683;51.730;8.762;2024-03-02T05:04:59;13.75;;;7.50;;
72639;SDS011;60683;51.730;8.762;2024-03-02T05:07:46;9.20;;;4.50;;
72639;SDS011;60683;51.730;8.762;2024-03-02T05:10:31;10.40;;;5.20;;
72639;SDS011;60683;51.730;8.762;2024-03-02T05:13:17;10.00;;;6.07;;
72639;SDS011;60683;51.730;8.762;2024-03-02T05:16:03;15.75;;;5.43;;
72639;SDS011;60683;51.730;8.762;2024-03-02T05:18:48;11.80;;;5.50;;
72639;SDS011;60683;51.730;8.762;2024-03-02T05:21:34;9.85;;;5.35;;
72639;SDS011;60683;51.730;8.762;2024-03-02T05:24:21;10.95;;;6.00;;
72639;SDS011;60683;51.730;8.762;2024-03-02T05:27:06;10.93;;;5.72;;
72639;SDS011;60683;51.730;8.762;2024-03-02T05:29:51;15.98;;;6.70;;
72639;SDS011;60683;51.730;8.762;2024-03-02T05:32:37;14.82;;;7.50;;
72639;SDS011;60683;51.730;8.762;2024-03-02T05:35:22;17.33;;;6.88;;
72639;SDS011;60683;51.730;8.762;2024-03-02T05:38:08;11.48;;;5.15;;
72639;SDS011;60683;51.730;8.762;2024-03-02T05:40:54;8.50;;;4.53;;
72639;SDS011;60683;51.730;8.762;2024-03-02T05:43:39;15.35;;;6.95;;
72639;SDS011;60683;51.730;8.762;2024-03-02T05:46:24;10.32;;;5.28;;
72639;SDS011;60683;51.730;8.762;2024-03-02T05:49:10;11.85;;;6.05;;
72639;SDS011;60683;51.730;8.762;2024-03-02T05:51:56;12.27;;;6.65;;
72639;SDS011;60683;51.730;8.762;2024-03-02T05:54:41;12.02;;;5.80;;
72639;SDS011;60683;51.730;8.762;2024-03-02T05:57:28;19.73;;;7.28;;
72639;SDS011;60683;51.730;8.762;2024-03-02T06:00:29;14.93;;;6.15;;
72639;SDS011;60683;51.730;8.762;2024-03-02T06:03:15;14.45;;;7.10;;
72639;SDS011;60683;51.730;8.762;2024-03-02T06:06:00;17.05;;;7.47;;
72639;SDS011;60683;51.730;8.762;2024-03-02T06:08:45;11.18;;;6.00;;
72639;SDS011;60683;51.730;8.762;2024-03-02T06:11:30;12.23;;;6.65;;
72639;SDS011;60683;51.730;8.762;2024-03-02T06:14:18;16.23;;;8.15;;
72639;SDS011;60683;51.730;8.762;2024-03-02T06:17:03;14.88;;;6.28;;
72639;SDS011;60683;51.730;8.762;2024-03-02T06:19:49;14.73;;;6.85;;
72639;SDS011;60683;51.730;8.762;2024-03-02T06:22:35;10.45;;;4.97;;
72639;SDS011;60683;51.730;8.762;2024-03-02T06:25:20;11.60;;;6.28;;
72639;SDS011;60683;51.730;8.762;2024-03-02T06:28:05;12.23;;;6.95;;
72639;SDS011;60683;51.730;8.762;2024-03-02T06:30:52;14.77;;;5.50;;
72639;SDS011;60683;51.730;8.762;2024-03-02T06:33:38;11.23;;;5.80;;
72639;SDS011;60683;51.730;8.762;2024-03-02T06:36:23;15.93;;;7.97;;
72639;SDS011;60683;51.730;8.762;2024-03-02T06:39:09;8.65;;;4.15;;
72639;SDS011;60683;51.730;8.762;2024-03-02T06:41:56;12.73;;;6.10;;
72639;SDS011;60683;51.730;8.762;2024-03-02T06:44:42;15.55;;;6.53;;
72639;SDS011;60683;51.730;8.762;2024-03-02T06:47:28;14.20;;;5.88;;
72639;SDS011;60683;51.730;8.762;2024-03-02T06:50:14;13.77;;;6.45;;
72639;SDS011;60683;51.730;8.762;2024-03-02T06:52:59;16.95;;;8.07;;
72639;SDS011;60683;51.730;8.762;2024-03-02T06:55:45;19.05;;;7.80;;
72639;SDS011;60683;51.730;8.762;2024-03-02T06:58:30;15.23;;;5.63;;
72639;SDS011;60683;51.730;8.762;2024-03-02T07:01:16;13.55;;;7.18;;
72639;SDS011;60683;51.730;8.762;2024-03-02T07:04:03;15.35;;;7.70;;
72639;SDS011;60683;51.730;8.762;2024-03-02T07:06:50;16.90;;;6.95;;
72639;SDS011;60683;51.730;8.762;2024-03-02T07:09:35;14.02;;;6.55;;
72639;SDS011;60683;51.730;8.762;2024-03-02T07:12:21;18.42;;;8.55;;
72639;SDS011;60683;51.730;8.762;2024-03-02T07:15:07;14.32;;;7.10;;
72639;SDS011;60683;51.730;8.762;2024-03-02T07:18:08;14.68;;;7.22;;
72639;SDS011;60683;51.730;8.762;2024-03-02T07:20:55;11.43;;;5.55;;
72639;SDS011;60683;51.730;8.762;2024-03-02T07:23:42;10.75;;;6.13;;
72639;SDS011;60683;51.730;8.762;2024-03-02T07:26:28;11.00;;;5.40;;
72639;SDS011;60683;51.730;8.762;2024-03-02T07:29:14;12.55;;;6.18;;
72639;SDS011;60683;51.730;8.762;2024-03-02T07:31:59;16.55;;;7.40;;
72639;SDS011;60683;51.730;8.762;2024-03-02T07:34:45;13.77;;;6.28;;
72639;SDS011;60683;51.730;8.762;2024-03-02T07:37:32;16.83;;;6.63;;
72639;SDS011;60683;51.730;8.762;2024-03-02T07:40:18;14.18;;;6.70;;
72639;SDS011;60683;51.730;8.762;2024-03-02T07:43:04;15.75;;;7.55;;
72639;SDS011;60683;51.730;8.762;2024-03-02T07:45:50;21.20;;;9.23;;
72639;SDS011;60683;51.730;8.762;2024-03-02T07:48:35;13.60;;;6.45;;
72639;SDS011;60683;51.730;8.762;2024-03-02T07:51:20;15.43;;;6.53;;
72639;SDS011;60683;51.730;8.762;2024-03-02T07:54:07;14.05;;;6.45;;
72639;SDS011;60683;51.730;8.762;2024-03-02T07:56:52;11.93;;;5.82;;
72639;SDS011;60683;51.730;8.762;2024-03-02T07:59:37;14.38;;;6.53;;
72639;SDS011;60683;51.730;8.762;2024-03-02T08:02:23;15.82;;;7.28;;
72639;SDS011;60683;51.730;8.762;2024-03-02T08:05:08;14.75;;;7.28;;
72639;SDS011;60683;51.730;8.762;2024-03-02T08:07:54;12.10;;;5.80;;
72639;SDS011;60683;51.730;8.762;2024-03-02T08:10:41;18.42;;;7.97;;
72639;SDS011;60683;51.730;8.762;2024-03-02T08:13:27;15.10;;;6.88;;
72639;SDS011;60683;51.730;8.762;2024-03-02T08:16:12;18.88;;;8.20;;
72639;SDS011;60683;51.730;8.762;2024-03-02T08:18:58;11.73;;;5.47;;
72639;SDS011;60683;51.730;8.762;2024-03-02T08:21:43;10.13;;;5.03;;
72639;SDS011;60683;51.730;8.762;2024-03-02T08:24:29;17.27;;;7.90;;
72639;SDS011;60683;51.730;8.762;2024-03-02T08:27:15;13.07;;;5.90;;
72639;SDS011;60683;51.730;8.762;2024-03-02T08:30:01;18.25;;;7.78;;
72639;SDS011;60683;51.730;8.762;2024-03-02T08:32:50;12.98;;;6.75;;
72639;SDS011;60683;51.730;8.762;2024-03-02T08:35:35;15.70;;;7.03;;
72639;SDS011;60683;51.730;8.762;2024-03-02T08:38:20;17.77;;;6.97;;
72639;SDS011;60683;51.730;8.762;2024-03-02T08:41:06;11.00;;;6.22;;
72639;SDS011;60683;51.730;8.762;2024-03-02T08:43:53;12.25;;;5.53;;
72639;SDS011;60683;51.730;8.762;2024-03-02T08:46:39;15.80;;;6.75;;
72639;SDS011;60683;51.730;8.762;2024-03-02T08:49:25;9.00;;;5.10;;
72639;SDS011;60683;51.730;8.762;2024-03-02T08:52:10;16.00;;;6.72;;
72639;SDS011;60683;51.730;8.762;2024-03-02T08:54:55;13.85;;;6.15;;
72639;SDS011;60683;51.730;8.762;2024-03-02T08:57:40;12.98;;;5.03;;
72639;SDS011;60683;51.730;8.762;2024-03-02T09:00:28;6.88;;;3.65;;
72639;SDS011;60683;51.730;8.762;2024-03-02T09:03:14;11.60;;;5.22;;
72639;SDS011;60683;51.730;8.762;2024-03-02T09:05:59;10.43;;;5.28;;
72639;SDS011;60683;51.730;8.762;2024-03-02T09:08:45;11.50;;;5.78;;
72639;SDS011;60683;51.730;8.762;2024-03-02T09:11:31;11.23;;;5.47;;
72639;SDS011;60683;51.730;8.762;2024-03-02T09:14:17;13.52;;;4.88;;
72639;SDS011;60683;51.730;8.762;2024-03-02T09:17:04;12.38;;;6.53;;
72639;SDS011;60683;51.730;8.762;2024-03-02T09:19:50;12.88;;;5.40;;
72639;SDS011;60683;51.730;8.762;2024-03-02T09:22:36;9.43;;;5.28;;
72639;SDS011;60683;51.730;8.762;2024-03-02T09:25:22;13.30;;;6.18;;
72639;SDS011;60683;51.730;8.762;2024-03-02T09:28:07;13.02;;;5.57;;
72639;SDS011;60683;51.730;8.762;2024-03-02T09:30:53;10.75;;;5.78;;
72639;SDS011;60683;51.730;8.762;2024-03-02T09:33:39;9.77;;;4.55;;
72639;SDS011;60683;51.730;8.762;2024-03-02T09:36:25;10.02;;;4.28;;
72639;SDS011;60683;51.730;8.762;2024-03-02T09:39:10;10.48;;;5.35;;
72639;SDS011;60683;51.730;8.762;2024-03-02T09:41:56;12.85;;;5.45;;
72639;SDS011;60683;51.730;8.762;2024-03-02T09:44:42;12.05;;;5.20;;
72639;SDS011;60683;51.730;8.762;2024-03-02T09:47:28;8.82;;;4.63;;
72639;SDS011;60683;51.730;8.762;2024-03-02T09:50:14;11.82;;;4.50;;
72639;SDS011;60683;51.730;8.762;2024-03-02T09:55:45;9.77;;;4.20;;
72639;SDS011;60683;51.730;8.762;2024-03-02T09:58:31;6.68;;;3.92;;
72639;SDS011;60683;51.730;8.762;2024-03-02T10:01:16;6.25;;;3.15;;
72639;SDS011;60683;51.730;8.762;2024-03-02T10:04:02;4.60;;;2.53;;
72639;SDS011;60683;51.730;8.762;2024-03-02T10:06:49;7.32;;;2.92;;
72639;SDS011;60683;51.730;8.762;2024-03-02T10:09:34;8.50;;;4.45;;
72639;SDS011;60683;51.730;8.762;2024-03-02T10:12:19;5.55;;;3.40;;
72639;SDS011;60683;51.730;8.762;2024-03-02T10:15:06;8.38;;;4.22;;
72639;SDS011;60683;51.730;8.762;2024-03-02T10:17:53;7.55;;;4.05;;
72639;SDS011;60683;51.730;8.762;2024-03-02T10:20:38;7.63;;;3.72;;
72639;SDS011;60683;51.730;8.762;2024-03-02T10:23:26;10.30;;;5.18;;
72639;SDS011;60683;51.730;8.762;2024-03-02T10:26:13;9.88;;;4.50;;
72639;SDS011;60683;51.730;8.762;2024-03-02T10:29:01;7.28;;;3.92;;
72639;SDS011;60683;51.730;8.762;2024-03-02T10:31:47;8.50;;;4.35;;
72639;SDS011;60683;51.730;8.762;2024-03-02T10:34:32;8.38;;;3.58;;
72639;SDS011;60683;51.730;8.762;2024-03-02T10:37:17;12.05;;;4.97;;
72639;SDS011;60683;51.730;8.762;2024-03-02T10:40:07;10.95;;;4.55;;
72639;SDS011;60683;51.730;8.762;2024-03-02T10:42:55;8.20;;;4.20;;
72639;SDS011;60683;51.730;8.762;2024-03-02T10:45:41;8.98;;;4.55;;
72639;SDS011;60683;51.730;8.762;2024-03-02T10:48:27;9.00;;;3.90;;
72639;SDS011;60683;51.730;8.762;2024-03-02T10:51:13;10.90;;;3.88;;
72639;SDS011;60683;51.730;8.762;2024-03-02T10:53:59;12.82;;;3.90;;
72639;SDS011;60683;51.730;8.762;2024-03-02T10:56:47;8.30;;;3.65;;
72639;SDS011;60683;51.730;8.762;2024-03-02T10:59:33;7.97;;;3.65;;
72639;SDS011;60683;51.730;8.762;2024-03-02T11:02:20;7.72;;;3.90;;
72639;SDS011;60683;51.730;8.762;2024-03-02T11:05:06;9.02;;;4.47;;
72639;SDS011;60683;51.730;8.762;2024-03-02T11:07:56;6.28;;;3.33;;
72639;SDS011;60683;51.730;8.762;2024-03-02T11:10:48;6.90;;;3.33;;
72639;SDS011;60683;51.730;8.762;2024-03-02T11:13:37;4.97;;;2.33;;
72639;SDS011;60683;51.730;8.762;2024-03-02T11:16:25;6.63;;;3.20;;
72639;SDS011;60683;51.730;8.762;2024-03-02T11:19:19;5.82;;;3.13;;
72639;SDS011;60683;51.730;8.762;2024-03-02T11:22:05;7.32;;;2.65;;
72639;SDS011;60683;51.730;8.762;2024-03-02T11:24:51;5.95;;;2.53;;
72639;SDS011;60683;51.730;8.762;2024-03-02T11:30:51;8.15;;;3.38;;
72639;SDS011;60683;51.730;8.762;2024-03-02T11:36:22;4.63;;;2.20;;
72639;SDS011;60683;51.730;8.762;2024-03-02T11:39:09;6.65;;;3.05;;
72639;SDS011;60683;51.730;8.762;2024-03-02T11:41:54;6.03;;;2.50;;
72639;SDS011;60683;51.730;8.762;2024-03-02T11:44:42;5.85;;;2.60;;
72639;SDS011;60683;51.730;8.762;2024-03-02T11:47:31;8.05;;;3.70;;
72639;SDS011;60683;51.730;8.762;2024-03-02T11:50:25;5.85;;;2.40;;
72639;SDS011;60683;51.730;8.762;2024-03-02T11:53:13;7.15;;;2.90;;
72639;SDS011;60683;51.730;8.762;2024-03-02T11:55:59;5.50;;;3.00;;
72639;SDS011;60683;51.730;8.762;2024-03-02T11:58:46;5.13;;;2.70;;
72639;SDS011;60683;51.730;8.762;2024-03-02T12:01:34;6.82;;;3.33;;
72639;SDS011;60683;51.730;8.762;2024-03-02T12:04:21;5.47;;;2.45;;
72639;SDS011;60683;51.730;8.762;2024-03-02T12:07:07;5.60;;;2.50;;
72639;SDS011;60683;51.730;8.762;2024-03-02T12:09:59;5.72;;;2.78;;
72639;SDS011;60683;51.730;8.762;2024-03-02T12:12:45;5.22;;;2.05;;
72639;SDS011;60683;51.730;8.762;2024-03-02T12:15:30;5.32;;;2.40;;
72639;SDS011;60683;51.730;8.762;2024-03-02T12:18:16;4.07;;;2.40;;
72639;SDS011;60683;51.730;8.762;2024-03-02T12:21:04;4.65;;;2.10;;
72639;SDS011;60683;51.730;8.762;2024-03-02T12:23:52;4.82;;;2.25;;
72639;SDS011;60683;51.730;8.762;2024-03-02T12:26:37;3.78;;;1.70;;
72639;SDS011;60683;51.730;8.762;2024-03-02T12:29:24;5.40;;;2.47;;
72639;SDS011;60683;51.730;8.762;2024-03-02T12:32:09;6.13;;;2.80;;
72639;SDS011;60683;51.730;8.762;2024-03-02T12:34:55;5.45;;;2.40;;
72639;SDS011;60683;51.730;8.762;2024-03-02T12:37:44;4.03;;;2.22;;
72639;SDS011;60683;51.730;8.762;2024-03-02T12:40:30;4.43;;;1.80;;
72639;SDS011;60683;51.730;8.762;2024-03-02T12:43:16;4.32;;;2.00;;
72639;SDS011;60683;51.730;8.762;2024-03-02T12:46:02;3.25;;;1.70;;
72639;SDS011;60683;51.730;8.762;2024-03-02T12:48:48;5.15;;;2.38;;
72639;SDS011;60683;51.730;8.762;2024-03-02T12:51:34;5.03;;;2.10;;
72639;SDS011;60683;51.730;8.762;2024-03-02T12:54:22;3.97;;;1.98;;
72639;SDS011;60683;51.730;8.762;2024-03-02T12:57:08;4.68;;;1.80;;
72639;SDS011;60683;51.730;8.762;2024-03-02T12:59:56;4.68;;;2.20;;
72639;SDS011;60683;51.730;8.762;2024-03-02T13:02:43;4.95;;;2.15;;
72639;SDS011;60683;51.730;8.762;2024-03-02T13:05:29;5.43;;;2.45;;
72639;SDS011;60683;51.730;8.762;2024-03-02T13:08:16;3.92;;;1.73;;
72639;SDS011;60683;51.730;8.762;2024-03-02T13:11:02;4.65;;;1.90;;
72639;SDS011;60683;51.730;8.762;2024-03-02T13:13:50;3.67;;;1.75;;
72639;SDS011;60683;51.730;8.762;2024-03-02T13:16:38;5.80;;;1.98;;
72639;SDS011;60683;51.730;8.762;2024-03-02T13:19:24;4.50;;;2.00;;
72639;SDS011;60683;51.730;8.762;2024-03-02T13:22:09;4.78;;;1.70;;
72639;SDS011;60683;51.730;8.762;2024-03-02T13:24:55;4.95;;;1.52;;
72639;SDS011;60683;51.730;8.762;2024-03-02T13:27:43;4.57;;;2.00;;
72639;SDS011;60683;51.730;8.762;2024-03-02T13:30:29;3.47;;;1.52;;
72639;SDS011;60683;51.730;8.762;2024-03-02T13:33:14;3.63;;;1.50;;
72639;SDS011;60683;51.730;8.762;2024-03-02T13:35:59;3.25;;;1.50;;
72639;SDS011;60683;51.730;8.762;2024-03-02T13:38:45;3.92;;;1.27;;
72639;SDS011;60683;51.730;8.762;2024-03-02T13:41:30;3.80;;;1.42;;
72639;SDS011;60683;51.730;8.762;2024-03-02T13:44:17;3.15;;;1.45;;
72639;SDS011;60683;51.730;8.762;2024-03-02T13:47:02;3.03;;;1.20;;
72639;SDS011;60683;51.730;8.762;2024-03-02T13:49:48;3.40;;;1.42;;
72639;SDS011;60683;51.730;8.762;2024-03-02T13:52:34;3.42;;;1.38;;
72639;SDS011;60683;51.730;8.762;2024-03-02T13:55:19;2.35;;;1.00;;
72639;SDS011;60683;51.730;8.762;2024-03-02T13:58:05;3.20;;;1.30;;
72639;SDS011;60683;51.730;8.762;2024-03-02T14:00:51;2.58;;;1.10;;
72639;SDS011;60683;51.730;8.762;2024-03-02T14:03:36;3.78;;;1.30;;
72639;SDS011;60683;51.730;8.762;2024-03-02T14:06:22;2.67;;;1.05;;
72639;SDS011;60683;51.730;8.762;2024-03-02T14:09:08;3.00;;;1.30;;
72639;SDS011;60683;51.730;8.762;2024-03-02T14:11:53;2.13;;;1.02;;
72639;SDS011;60683;51.730;8.762;2024-03-02T14:14:39;3.30;;;1.30;;
72639;SDS011;60683;51.730;8.762;2024-03-02T14:17:26;3.47;;;1.50;;
72639;SDS011;60683;51.730;8.762;2024-03-02T14:20:11;2.67;;;1.30;;
72639;SDS011;60683;51.730;8.762;2024-03-02T14:22:57;3.25;;;1.20;;
72639;SDS011;60683;51.730;8.762;2024-03-02T14:25:43;6.10;;;1.20;;
72639;SDS011;60683;51.730;8.762;2024-03-02T14:28:28;3.10;;;1.10;;
72639;SDS011;60683;51.730;8.762;2024-03-02T14:31:13;3.20;;;1.20;;
72639;SDS011;60683;51.730;8.762;2024-03-02T14:34:00;2.05;;;1.00;;
72639;SDS011;60683;51.730;8.762;2024-03-02T14:36:45;2.22;;;0.80;;
72639;SDS011;60683;51.730;8.762;2024-03-02T14:39:30;3.45;;;1.30;;
72639;SDS011;60683;51.730;8.762;2024-03-02T14:42:18;2.97;;;1.40;;
72639;SDS011;60683;51.730;8.762;2024-03-02T14:45:04;3.22;;;1.70;;
72639;SDS011;60683;51.730;8.762;2024-03-02T14:47:49;3.55;;;1.50;;
72639;SDS011;60683;51.730;8.762;2024-03-02T14:50:38;3.42;;;1.30;;
72639;SDS011;60683;51.730;8.762;2024-03-02T14:53:23;3.45;;;1.77;;
72639;SDS011;60683;51.730;8.762;2024-03-02T14:56:08;4.32;;;1.95;;
72639;SDS011;60683;51.730;8.762;2024-03-02T14:58:54;5.10;;;2.35;;
72639;SDS011;60683;51.730;8.762;2024-03-02T15:01:39;4.20;;;2.10;;
72639;SDS011;60683;51.730;8.762;2024-03-02T15:04:25;5.13;;;1.90;;
72639;SDS011;60683;51.730;8.762;2024-03-02T15:07:12;4.18;;;1.77;;
72639;SDS011;60683;51.730;8.762;2024-03-02T15:09:57;3.65;;;1.65;;
72639;SDS011;60683;51.730;8.762;2024-03-02T15:12:42;3.40;;;1.45;;
72639;SDS011;60683;51.730;8.762;2024-03-02T15:15:28;2.45;;;1.00;;
72639;SDS011;60683;51.730;8.762;2024-03-02T15:18:13;5.50;;;0.98;;
72639;SDS011;60683;51.730;8.762;2024-03-02T15:20:58;4.55;;;1.10;;
72639;SDS011;60683;51.730;8.762;2024-03-02T15:23:45;2.40;;;0.60;;
72639;SDS011;60683;51.730;8.762;2024-03-02T15:26:30;3.60;;;1.00;;
72639;SDS011;60683;51.730;8.762;2024-03-02T15:29:15;3.00;;;1.08;;
72639;SDS011;60683;51.730;8.762;2024-03-02T15:32:01;2.00;;;0.85;;
72639;SDS011;60683;51.730;8.762;2024-03-02T15:34:49;3.13;;;1.30;;
72639;SDS011;60683;51.730;8.762;2024-03-02T15:37:34;2.60;;;0.98;;
72639;SDS011;60683;51.730;8.762;2024-03-02T15:40:21;3.45;;;1.05;;
72639;SDS011;60683;51.730;8.762;2024-03-02T15:43:06;3.15;;;1.45;;
72639;SDS011;60683;51.730;8.762;2024-03-02T15:45:51;1.30;;;0.60;;
72639;SDS011;60683;51.730;8.762;2024-03-02T15:48:37;4.35;;;1.20;;
72639;SDS011;60683;51.730;8.762;2024-03-02T15:51:22;3.28;;;1.20;;
72639;SDS011;60683;51.730;8.762;2024-03-02T15:54:08;4.93;;;1.83;;
72639;SDS011;60683;51.730;8.762;2024-03-02T15:56:54;4.75;;;2.20;;
72639;SDS011;60683;51.730;8.762;2024-03-02T15:59:40;3.67;;;1.58;;
72639;SDS011;60683;51.730;8.762;2024-03-02T16:02:25;4.18;;;1.90;;
72639;SDS011;60683;51.730;8.762;2024-03-02T16:05:10;4.80;;;1.90;;
72639;SDS011;60683;51.730;8.762;2024-03-02T16:07:56;4.13;;;1.48;;
72639;SDS011;60683;51.730;8.762;2024-03-02T16:10:42;3.53;;;1.20;;
72639;SDS011;60683;51.730;8.762;2024-03-02T16:13:29;3.85;;;1.60;;
72639;SDS011;60683;51.730;8.762;2024-03-02T16:16:16;5.00;;;1.45;;
72639;SDS011;60683;51.730;8.762;2024-03-02T16:19:01;2.67;;;1.27;;
72639;SDS011;60683;51.730;8.762;2024-03-02T16:21:47;2.47;;;1.02;;
72639;SDS011;60683;51.730;8.762;2024-03-02T16:24:33;3.72;;;1.50;;
72639;SDS011;60683;51.730;8.762;2024-03-02T16:27:18;5.15;;;1.77;;
72639;SDS011;60683;51.730;8.762;2024-03-02T16:30:06;4.18;;;2.00;;
72639;SDS011;60683;51.730;8.762;2024-03-02T16:32:51;3.92;;;1.40;;
72639;SDS011;60683;51.730;8.762;2024-03-02T16:35:37;3.50;;;1.50;;
72639;SDS011;60683;51.730;8.762;2024-03-02T16:38:22;4.30;;;1.42;;
72639;SDS011;60683;51.730;8.762;2024-03-02T16:41:08;4.53;;;1.42;;
72639;SDS011;60683;51.730;8.762;2024-03-02T16:43:54;4.05;;;1.27;;
72639;SDS011;60683;51.730;8.762;2024-03-02T16:46:40;3.35;;;1.33;;
72639;SDS011;60683;51.730;8.762;2024-03-02T16:49:26;3.53;;;1.20;;